Ops Hamburg — A8VS9 — position and weather

sailwx.info

Track history (hours):
 
Tides and Currents Weather Stations Pressure Air Temp Water Temp Dewpoint Dewpoint Depression Visibility Wind Speed Wind Dir Waves Ship Positions

Ops Hamburg

Last reported at 2016-May-26 15:12 UTC. Time now 2016-May-27 08:25 UTC.
Position N 35°52' W 001°02'.

Length 148 m; draft 7.4 m.

Type: Cargo ship. MMSI: 636092040.

Date/timePositionNaut miles runAvg speedWind from/ knotsBaromVisibWave heightAir tempDewpointWater temp
2016-May-26 15:12N 35°52' W 001°02'83 2.0
2016-May-24 20:32N 37°11' W 000°30'1313.0
2016-May-24 19:33N 37°23' W 000°24'1313.0
2016-May-24 18:33N 37°35' W 000°17'1212.4
2016-May-24 17:33N 37°46' W 000°11'1412.0
2016-May-24 16:23N 37°59' W 000°04'84 3.1
2016-May-23 13:07N 39°23' W 000°11'611.0
2016-May-23 12:33N 39°26' W 000°18'2 0.7
2016-May-23 10:26N 39°27' W 000°19'0 0.0
2016-May-23 08:32N 39°27' W 000°19'0 0.0
2016-May-23 06:26N 39°27' W 000°19'0 0.0
2016-May-23 05:32N 39°27' W 000°19'0 0.0
2016-May-23 04:29N 39°27' W 000°19'0 0.0
2016-May-23 03:26N 39°27' W 000°19'0 0.0
2016-May-23 02:29N 39°27' W 000°19'3 3.2
2016-May-23 01:34N 39°26' W 000°16'6312.5
2016-May-22 20:33N 40°08' E 000°44'1212.2
2016-May-22 19:33N 40°16' E 000°56'1212.1
2016-May-22 18:33N 40°24' E 001°08'1312.6
2016-May-22 17:33N 40°32' E 001°20'1212.6
2016-May-22 16:33N 40°41' E 001°32'1212.3
2016-May-22 15:33N 40°49' E 001°44'1211.8
2016-May-22 14:33N 40°57' E 001°56'1211.7
2016-May-22 13:33N 41°07' E 002°05'1211.3
2016-May-22 12:31N 41°18' E 002°11'4 0.5
2016-May-22 04:19N 41°21' E 002°10'15 8.1
2016-May-22 02:30N 41°18' E 002°29'1212.2
2016-May-22 01:30N 41°24' E 002°44'2512.2
2016-May-21 23:29N 41°38' E 003°11'1112.2
2016-May-21 22:33N 41°46' E 003°22'1312.4
2016-May-21 21:33N 41°54' E 003°34'1212.4
2016-May-21 20:33N 42°03' E 003°45'1211.7
2016-May-21 19:33N 42°12' E 003°56'1211.6
2016-May-21 18:33N 42°21' E 004°06'1212.0
2016-May-21 17:33N 42°30' E 004°17'1212.2
2016-May-21 16:33N 42°39' E 004°28'1312.1
2016-May-21 15:30N 42°48' E 004°40'1212.0
2016-May-21 14:30N 42°57' E 004°51'1112.0
2016-May-21 13:34N 43°05' E 005°01'1211.6
2016-May-21 12:34N 43°15' E 005°09'10 9.7
2016-May-21 11:33N 43°21' E 005°20'0 0.0
2016-May-21 10:28N 43°21' E 005°20'0 0.0
2016-May-21 06:28N 43°21' E 005°20'0 0.0
2016-May-21 05:28N 43°21' E 005°20'0 0.0
2016-May-21 04:31N 43°21' E 005°20'0 0.0
2016-May-21 03:16N 43°21' E 005°20'0 0.0
2016-May-21 02:22N 43°21' E 005°20'0 0.0
2016-May-21 01:22N 43°21' E 005°20'0 0.0
2016-May-21 00:22N 43°21' E 005°20'0 0.0
2016-May-20 22:22N 43°21' E 005°20'0 0.0
2016-May-20 21:22N 43°21' E 005°20'0 0.0
2016-May-20 20:28N 43°21' E 005°20'0 0.0
2016-May-20 19:28N 43°21' E 005°20'0 0.0
2016-May-20 18:28N 43°21' E 005°20'0 0.0
2016-May-20 17:28N 43°21' E 005°20'0 0.0
2016-May-20 16:28N 43°21' E 005°20'0 0.0
2016-May-20 14:19N 43°21' E 005°20'0 0.0
2016-May-20 13:04N 43°21' E 005°20'0 0.0
2016-May-20 12:22N 43°21' E 005°20'0 0.0
2016-May-20 11:34N 43°21' E 005°20'0 0.0
2016-May-20 09:10N 43°21' E 005°20'0 0.0
2016-May-20 08:22N 43°21' E 005°20'2 2.2
2016-May-20 07:33N 43°21' E 005°18'1010.2
2016-May-20 06:33N 43°12' E 005°11'8710.4
2016-May-19 22:12N 43°13' E 007°10'912.4
2016-May-19 21:27N 43°19' E 007°21'1212.5
2016-May-19 20:27N 43°27' E 007°34'3113.0
2016-May-19 18:04N 43°46' E 008°07'713.7
2016-May-19 17:33N 43°51' E 008°15'1313.1
2016-May-19 16:33N 43°60' E 008°28'1312.9
2016-May-19 15:33N 44°08' E 008°41'1312.9
2016-May-19 14:34N 44°17' E 008°54'7 7.0
2016-May-19 13:33N 44°24' E 008°54'0 0.0
2016-May-19 12:32N 44°24' E 008°54'0 0.0
2016-May-19 11:32N 44°24' E 008°54'0 0.0
2016-May-19 10:32N 44°24' E 008°54'0 0.0
2016-May-19 09:32N 44°24' E 008°54'0 0.0
2016-May-19 08:32N 44°24' E 008°54'0 0.0
2016-May-19 07:32N 44°24' E 008°54'0 0.0
2016-May-19 06:32N 44°24' E 008°54'0 0.0
2016-May-19 05:32N 44°24' E 008°54'0 0.0
2016-May-19 04:26N 44°24' E 008°54'0 0.0
2016-May-19 03:32N 44°24' E 008°54'4 4.3
2016-May-19 02:33N 44°21' E 008°58'1110.7
2016-May-19 01:34N 44°13' E 009°07'1313.0
2016-May-19 00:33N 44°05' E 009°22'1313.0
2016-May-18 23:33N 43°58' E 009°37'1211.7
2016-May-18 22:33N 44°01' E 009°52'5 5.4
2016-May-18 21:33N 44°07' E 009°51'0 0.0
2016-May-18 20:33N 44°07' E 009°51'0 0.0
2016-May-18 19:24N 44°07' E 009°51'0 0.0
2016-May-18 18:33N 44°07' E 009°51'0 0.0
2016-May-18 17:30N 44°07' E 009°51'0 0.0
2016-May-18 16:33N 44°07' E 009°51'0 0.0
2016-May-18 15:30N 44°07' E 009°51'0 0.0
2016-May-18 14:30N 44°07' E 009°51'0 0.0
2016-May-18 13:30N 44°07' E 009°51'0 0.0
2016-May-18 12:33N 44°07' E 009°51'0 0.0
2016-May-18 11:33N 44°07' E 009°51'0 0.0
2016-May-18 10:33N 44°07' E 009°51'0 0.0
2016-May-18 09:33N 44°07' E 009°51'0 0.0
2016-May-18 08:33N 44°07' E 009°51'0 0.0
2016-May-18 07:33N 44°07' E 009°51'0 0.0
2016-May-18 06:31N 44°07' E 009°51'0 0.0
2016-May-18 05:33N 44°07' E 009°51'5 5.3
2016-May-18 04:33N 44°02' E 009°54'8 7.5
2016-May-18 03:33N 43°55' E 009°50'1615.6
2016-May-18 02:34N 43°43' E 009°36'1515.2
2016-May-18 01:33N 43°32' E 009°21'1515.0
2016-May-18 00:33N 43°20' E 009°09'1515.5
2016-May-17 23:34N 43°09' E 008°55'  
Track history (hours):
 
Tides and Currents Weather Stations Pressure Air Temp Water Temp Dewpoint Dewpoint Depression Visibility Wind Speed Wind Dir Waves Ship Positions

Ops Hamburg

Last reported at 2016-May-26 15:12 UTC. Time now 2016-May-27 08:25 UTC.
Position N 35°52' W 001°02'.

Length 148 m; draft 7.4 m.

Type: Cargo ship. MMSI: 636092040.

Date/timePositionNaut miles runAvg speedWind from/ knotsBaromVisibWave heightAir tempDewpointWater temp
2016-May-26 15:12N 35°52' W 001°02'83 2.0
2016-May-24 20:32N 37°11' W 000°30'1313.0
2016-May-24 19:33N 37°23' W 000°24'1313.0
2016-May-24 18:33N 37°35' W 000°17'1212.4
2016-May-24 17:33N 37°46' W 000°11'1412.0
2016-May-24 16:23N 37°59' W 000°04'84 3.1
2016-May-23 13:07N 39°23' W 000°11'611.0
2016-May-23 12:33N 39°26' W 000°18'2 0.7
2016-May-23 10:26N 39°27' W 000°19'0 0.0
2016-May-23 08:32N 39°27' W 000°19'0 0.0
2016-May-23 06:26N 39°27' W 000°19'0 0.0
2016-May-23 05:32N 39°27' W 000°19'0 0.0
2016-May-23 04:29N 39°27' W 000°19'0 0.0
2016-May-23 03:26N 39°27' W 000°19'0 0.0
2016-May-23 02:29N 39°27' W 000°19'3 3.2
2016-May-23 01:34N 39°26' W 000°16'6312.5
2016-May-22 20:33N 40°08' E 000°44'1212.2
2016-May-22 19:33N 40°16' E 000°56'1212.1
2016-May-22 18:33N 40°24' E 001°08'1312.6
2016-May-22 17:33N 40°32' E 001°20'1212.6
2016-May-22 16:33N 40°41' E 001°32'1212.3
2016-May-22 15:33N 40°49' E 001°44'1211.8
2016-May-22 14:33N 40°57' E 001°56'1211.7
2016-May-22 13:33N 41°07' E 002°05'1211.3
2016-May-22 12:31N 41°18' E 002°11'4 0.5
2016-May-22 04:19N 41°21' E 002°10'15 8.1
2016-May-22 02:30N 41°18' E 002°29'1212.2
2016-May-22 01:30N 41°24' E 002°44'2512.2
2016-May-21 23:29N 41°38' E 003°11'1112.2
2016-May-21 22:33N 41°46' E 003°22'1312.4
2016-May-21 21:33N 41°54' E 003°34'1212.4
2016-May-21 20:33N 42°03' E 003°45'1211.7
2016-May-21 19:33N 42°12' E 003°56'1211.6
2016-May-21 18:33N 42°21' E 004°06'1212.0
2016-May-21 17:33N 42°30' E 004°17'1212.2
2016-May-21 16:33N 42°39' E 004°28'1312.1
2016-May-21 15:30N 42°48' E 004°40'1212.0
2016-May-21 14:30N 42°57' E 004°51'1112.0
2016-May-21 13:34N 43°05' E 005°01'1211.6
2016-May-21 12:34N 43°15' E 005°09'10 9.7
2016-May-21 11:33N 43°21' E 005°20'0 0.0
2016-May-21 10:28N 43°21' E 005°20'0 0.0
2016-May-21 06:28N 43°21' E 005°20'0 0.0
2016-May-21 05:28N 43°21' E 005°20'0 0.0
2016-May-21 04:31N 43°21' E 005°20'0 0.0
2016-May-21 03:16N 43°21' E 005°20'0 0.0
2016-May-21 02:22N 43°21' E 005°20'0 0.0
2016-May-21 01:22N 43°21' E 005°20'0 0.0
2016-May-21 00:22N 43°21' E 005°20'0 0.0
2016-May-20 22:22N 43°21' E 005°20'0 0.0
2016-May-20 21:22N 43°21' E 005°20'0 0.0
2016-May-20 20:28N 43°21' E 005°20'0 0.0
2016-May-20 19:28N 43°21' E 005°20'0 0.0
2016-May-20 18:28N 43°21' E 005°20'0 0.0
2016-May-20 17:28N 43°21' E 005°20'0 0.0
2016-May-20 16:28N 43°21' E 005°20'0 0.0
2016-May-20 14:19N 43°21' E 005°20'0 0.0
2016-May-20 13:04N 43°21' E 005°20'0 0.0
2016-May-20 12:22N 43°21' E 005°20'0 0.0
2016-May-20 11:34N 43°21' E 005°20'0 0.0
2016-May-20 09:10N 43°21' E 005°20'0 0.0
2016-May-20 08:22N 43°21' E 005°20'2 2.2
2016-May-20 07:33N 43°21' E 005°18'1010.2
2016-May-20 06:33N 43°12' E 005°11'8710.4
2016-May-19 22:12N 43°13' E 007°10'912.4
2016-May-19 21:27N 43°19' E 007°21'1212.5
2016-May-19 20:27N 43°27' E 007°34'3113.0
2016-May-19 18:04N 43°46' E 008°07'713.7
2016-May-19 17:33N 43°51' E 008°15'1313.1
2016-May-19 16:33N 43°60' E 008°28'1312.9
2016-May-19 15:33N 44°08' E 008°41'1312.9
2016-May-19 14:34N 44°17' E 008°54'7 7.0
2016-May-19 13:33N 44°24' E 008°54'0 0.0
2016-May-19 12:32N 44°24' E 008°54'0 0.0
2016-May-19 11:32N 44°24' E 008°54'0 0.0
2016-May-19 10:32N 44°24' E 008°54'0 0.0
2016-May-19 09:32N 44°24' E 008°54'0 0.0
2016-May-19 08:32N 44°24' E 008°54'0 0.0
2016-May-19 07:32N 44°24' E 008°54'0 0.0
2016-May-19 06:32N 44°24' E 008°54'0 0.0
2016-May-19 05:32N 44°24' E 008°54'0 0.0
2016-May-19 04:26N 44°24' E 008°54'0 0.0
2016-May-19 03:32N 44°24' E 008°54'4 4.3
2016-May-19 02:33N 44°21' E 008°58'1110.7
2016-May-19 01:34N 44°13' E 009°07'1313.0
2016-May-19 00:33N 44°05' E 009°22'1313.0
2016-May-18 23:33N 43°58' E 009°37'1211.7
2016-May-18 22:33N 44°01' E 009°52'5 5.4
2016-May-18 21:33N 44°07' E 009°51'0 0.0
2016-May-18 20:33N 44°07' E 009°51'0 0.0
2016-May-18 19:24N 44°07' E 009°51'0 0.0
2016-May-18 18:33N 44°07' E 009°51'0 0.0
2016-May-18 17:30N 44°07' E 009°51'0 0.0
2016-May-18 16:33N 44°07' E 009°51'0 0.0
2016-May-18 15:30N 44°07' E 009°51'0 0.0
2016-May-18 14:30N 44°07' E 009°51'0 0.0
2016-May-18 13:30N 44°07' E 009°51'0 0.0
2016-May-18 12:33N 44°07' E 009°51'0 0.0
2016-May-18 11:33N 44°07' E 009°51'0 0.0
2016-May-18 10:33N 44°07' E 009°51'0 0.0
2016-May-18 09:33N 44°07' E 009°51'0 0.0
2016-May-18 08:33N 44°07' E 009°51'0 0.0
2016-May-18 07:33N 44°07' E 009°51'0 0.0
2016-May-18 06:31N 44°07' E 009°51'0 0.0
2016-May-18 05:33N 44°07' E 009°51'5 5.3
2016-May-18 04:33N 44°02' E 009°54'8 7.5
2016-May-18 03:33N 43°55' E 009°50'1615.6
2016-May-18 02:34N 43°43' E 009°36'1515.2
2016-May-18 01:33N 43°32' E 009°21'1515.0
2016-May-18 00:33N 43°20' E 009°09'1515.5
2016-May-17 23:34N 43°09' E 008°55'  

Dump ship's entire track history